createdAt,value
2018-08-12T00:02:12.237Z,10.53
2018-08-12T00:04:40.367Z,7.47
2018-08-12T00:07:08.449Z,10.17
2018-08-12T00:09:36.542Z,6.67
2018-08-12T00:12:05.469Z,10.17
2018-08-12T00:14:33.716Z,7.37
2018-08-12T00:17:01.800Z,7.40
2018-08-12T00:19:29.877Z,7.90
2018-08-12T00:21:57.937Z,6.73
2018-08-12T00:24:25.992Z,6.53
2018-08-12T00:26:54.102Z,10.37
2018-08-12T00:29:22.112Z,6.23
2018-08-12T00:31:50.213Z,6.80
2018-08-12T00:34:18.378Z,7.53
2018-08-12T00:36:46.468Z,7.10
2018-08-12T00:39:14.541Z,6.60
2018-08-12T00:41:42.571Z,6.17
2018-08-12T00:44:10.622Z,7.53
2018-08-12T00:46:38.689Z,6.87
2018-08-12T00:49:06.884Z,9.53
2018-08-12T00:51:35.046Z,7.30
2018-08-12T00:54:03.187Z,6.77
2018-08-12T00:56:31.253Z,6.23
2018-08-12T00:58:59.412Z,9.37
2018-08-12T01:01:27.482Z,7.87
2018-08-12T01:03:55.642Z,6.10
2018-08-12T01:06:23.683Z,9.13
2018-08-12T01:08:51.828Z,8.60
2018-08-12T01:11:19.864Z,9.63
2018-08-12T01:13:47.963Z,7.67
2018-08-12T01:16:16.018Z,7.93
2018-08-12T01:18:44.053Z,7.13
2018-08-12T01:21:12.186Z,7.70
2018-08-12T01:23:40.259Z,7.50
2018-08-12T01:26:08.467Z,7.33
2018-08-12T01:28:36.496Z,8.47
2018-08-12T01:31:04.603Z,8.27
2018-08-12T01:33:32.733Z,8.93
2018-08-12T01:36:00.811Z,8.50
2018-08-12T01:38:28.884Z,10.13
2018-08-12T01:40:56.951Z,9.10
2018-08-12T01:43:25.073Z,9.97
2018-08-12T01:45:53.179Z,10.77
2018-08-12T01:48:21.233Z,7.77
2018-08-12T01:50:49.347Z,8.23
2018-08-12T01:53:17.403Z,12.73
2018-08-12T01:55:45.517Z,9.87
2018-08-12T01:58:13.604Z,8.27
2018-08-12T02:00:41.676Z,8.37
2018-08-12T02:03:09.784Z,8.00
2018-08-12T02:05:37.896Z,8.20
2018-08-12T02:08:06.073Z,9.33
2018-08-12T02:10:34.150Z,7.67
2018-08-12T02:13:02.310Z,9.27
2018-08-12T02:15:30.620Z,14.20
2018-08-12T02:17:58.652Z,13.40
2018-08-12T02:20:26.728Z,17.60
2018-08-12T02:22:54.756Z,20.40
2018-08-12T02:25:22.966Z,22.50
2018-08-12T02:27:51.032Z,22.67
2018-08-12T02:30:19.116Z,18.80
2018-08-12T02:32:47.182Z,13.37
2018-08-12T02:35:15.249Z,10.20
2018-08-12T02:37:43.451Z,11.00
2018-08-12T02:40:11.541Z,7.80
2018-08-12T02:42:39.667Z,6.90
2018-08-12T02:45:10.104Z,8.70
2018-08-12T02:47:38.114Z,6.40
2018-08-12T02:50:06.289Z,6.60
2018-08-12T02:52:34.427Z,6.37
2018-08-12T02:55:02.510Z,4.93
2018-08-12T02:57:30.732Z,8.27
2018-08-12T02:59:58.777Z,5.53
2018-08-12T03:02:26.888Z,7.30
2018-08-12T03:04:54.938Z,9.83
2018-08-12T03:07:22.985Z,6.77
2018-08-12T03:09:51.026Z,6.60
2018-08-12T03:12:19.137Z,5.67
2018-08-12T03:14:47.306Z,8.83
2018-08-12T03:17:15.398Z,7.67
2018-08-12T03:19:43.442Z,5.30
2018-08-12T03:22:11.539Z,6.53
2018-08-12T03:24:39.656Z,8.40
2018-08-12T03:27:07.712Z,4.90
2018-08-12T03:29:35.737Z,5.70
2018-08-12T03:32:03.876Z,5.40
2018-08-12T03:34:32.132Z,5.13
2018-08-12T03:37:00.192Z,6.00
2018-08-12T03:39:28.277Z,5.10
2018-08-12T03:41:56.332Z,5.97
2018-08-12T03:44:24.409Z,4.63
2018-08-12T03:46:52.425Z,5.43
2018-08-12T03:49:20.528Z,8.33
2018-08-12T03:51:48.570Z,5.60
2018-08-12T03:54:16.653Z,8.90
2018-08-12T03:56:45.559Z,5.37
2018-08-12T03:59:13.633Z,8.43
2018-08-12T04:01:41.666Z,6.80
2018-08-12T04:04:09.801Z,7.53
2018-08-12T04:06:37.858Z,7.93
2018-08-12T04:09:07.234Z,7.17
2018-08-12T04:11:35.287Z,3.93
2018-08-12T04:14:03.701Z,5.00
2018-08-12T04:16:31.805Z,8.73
2018-08-12T04:18:59.914Z,6.90
2018-08-12T04:21:27.992Z,5.77
2018-08-12T04:23:55.999Z,5.10
2018-08-12T04:26:24.089Z,5.27
2018-08-12T04:28:52.112Z,7.03
2018-08-12T04:31:20.176Z,5.17
2018-08-12T04:33:48.218Z,7.20
2018-08-12T04:36:16.294Z,8.00
2018-08-12T04:38:44.340Z,6.63
2018-08-12T04:41:12.387Z,6.13
2018-08-12T04:43:40.472Z,6.03
2018-08-12T04:46:08.588Z,4.73
2018-08-12T04:48:36.645Z,7.27
2018-08-12T04:51:04.748Z,8.00
2018-08-12T04:53:32.956Z,5.13
2018-08-12T04:56:01.084Z,5.23
2018-08-12T04:58:29.113Z,6.93
2018-08-12T05:00:57.165Z,5.60
2018-08-12T05:03:25.210Z,8.13
2018-08-12T05:05:53.245Z,5.07
2018-08-12T05:08:21.316Z,5.70
2018-08-12T05:10:49.337Z,4.20
2018-08-12T05:13:17.388Z,5.00
2018-08-12T05:15:45.435Z,4.90
2018-08-12T05:18:13.463Z,5.47
2018-08-12T05:20:41.666Z,5.53
2018-08-12T05:23:09.729Z,6.47
2018-08-12T05:25:37.888Z,4.53
2018-08-12T05:28:06.168Z,4.67
2018-08-12T05:30:34.255Z,4.03
2018-08-12T05:33:02.388Z,10.23
2018-08-12T05:35:30.547Z,4.80
2018-08-12T05:37:58.631Z,5.23
2018-08-12T05:40:26.693Z,3.70
2018-08-12T05:42:54.717Z,8.00
2018-08-12T05:45:22.907Z,4.67
2018-08-12T05:47:50.992Z,3.90
2018-08-12T05:50:19.200Z,4.87
2018-08-12T05:52:47.280Z,3.77
2018-08-12T05:55:15.483Z,7.00
2018-08-12T05:57:43.615Z,4.83
2018-08-12T06:00:13.090Z,3.83
2018-08-12T06:02:41.279Z,3.80
2018-08-12T06:05:09.351Z,3.30
2018-08-12T06:07:37.426Z,5.80
2018-08-12T06:10:07.057Z,4.83
2018-08-12T06:12:35.157Z,4.33
2018-08-12T06:15:04.263Z,3.33
2018-08-12T06:17:32.575Z,4.20
2018-08-12T06:20:00.643Z,4.40
2018-08-12T06:22:28.790Z,5.00
2018-08-12T06:24:56.887Z,4.93
2018-08-12T06:27:24.961Z,3.40
2018-08-12T06:29:53.028Z,3.73
2018-08-12T06:32:21.146Z,5.17
2018-08-12T06:34:49.210Z,5.10
2018-08-12T06:37:17.257Z,4.00
2018-08-12T06:39:45.522Z,4.93
2018-08-12T06:42:13.540Z,6.00
2018-08-12T06:44:42.716Z,5.20
2018-08-12T06:47:10.804Z,3.77
2018-08-12T06:49:38.892Z,4.60
2018-08-12T06:52:07.322Z,4.90
2018-08-12T06:54:35.451Z,3.33
2018-08-12T06:57:03.605Z,3.97
2018-08-12T06:59:31.821Z,6.93
2018-08-12T07:01:59.937Z,7.13
2018-08-12T07:04:28.023Z,8.67
2018-08-12T07:06:56.220Z,4.70
2018-08-12T07:09:24.288Z,6.27
2018-08-12T07:11:52.350Z,6.40
2018-08-12T07:14:20.490Z,5.17
2018-08-12T07:16:48.551Z,3.30
2018-08-12T07:19:16.644Z,4.10
2018-08-12T07:21:44.764Z,5.27
2018-08-12T07:24:12.848Z,6.10
2018-08-12T07:26:40.936Z,4.20
2018-08-12T07:29:09.080Z,5.60
2018-08-12T07:31:37.149Z,5.13
2018-08-12T07:34:05.608Z,3.37
2018-08-12T07:36:33.709Z,3.77
2018-08-12T07:39:01.873Z,3.87
2018-08-12T07:41:29.956Z,5.43
2018-08-12T07:43:58.042Z,5.03
2018-08-12T07:46:26.173Z,6.03
2018-08-12T07:48:54.307Z,2.73
2018-08-12T07:51:22.541Z,3.57
2018-08-12T07:53:50.717Z,3.93
2018-08-12T07:56:18.842Z,3.93
2018-08-12T07:58:46.915Z,2.40
2018-08-12T08:01:15.197Z,1.97
2018-08-12T08:03:43.205Z,4.50
2018-08-12T08:06:11.322Z,4.43
2018-08-12T08:08:39.808Z,5.43
2018-08-12T08:11:07.860Z,5.70
2018-08-12T08:13:35.939Z,2.50
2018-08-12T08:16:04.040Z,3.20
2018-08-12T08:18:32.256Z,2.77
2018-08-12T08:21:00.302Z,3.20
2018-08-12T08:23:28.343Z,4.87
2018-08-12T08:25:56.492Z,3.43
2018-08-12T08:28:24.520Z,1.87
2018-08-12T08:30:52.649Z,4.17
2018-08-12T08:33:20.739Z,3.37
2018-08-12T08:35:48.824Z,4.57
2018-08-12T08:38:16.893Z,3.27
2018-08-12T08:40:45.020Z,2.53
2018-08-12T08:43:13.176Z,2.63
2018-08-12T08:45:41.328Z,4.00
2018-08-12T08:48:09.412Z,4.33
2018-08-12T08:50:37.633Z,3.10
2018-08-12T08:53:05.984Z,3.70
2018-08-12T08:55:34.096Z,2.90
2018-08-12T08:58:02.264Z,2.33
2018-08-12T09:00:30.380Z,2.60
2018-08-12T09:02:58.491Z,1.87
2018-08-12T09:05:26.512Z,2.27
2018-08-12T09:07:54.752Z,3.23
2018-08-12T09:10:22.814Z,3.03
2018-08-12T09:12:50.916Z,4.90
2018-08-12T09:15:19.093Z,2.57
2018-08-12T09:17:47.196Z,3.10
2018-08-12T09:20:15.322Z,3.90
2018-08-12T09:22:43.404Z,2.07
2018-08-12T09:25:12.077Z,1.93
2018-08-12T09:27:40.248Z,4.70
2018-08-12T09:30:11.307Z,4.30
2018-08-12T09:32:39.452Z,3.00
2018-08-12T09:35:07.625Z,4.17
2018-08-12T09:37:35.716Z,4.60
2018-08-12T09:40:05.861Z,2.20
2018-08-12T09:42:33.953Z,2.30
2018-08-12T09:45:02.083Z,2.73
2018-08-12T09:47:30.157Z,3.43
2018-08-12T09:49:58.275Z,1.47
2018-08-12T09:52:26.305Z,1.07
2018-08-12T09:54:54.394Z,1.73
2018-08-12T09:57:22.536Z,1.17
2018-08-12T09:59:50.734Z,1.23
2018-08-12T10:02:19.788Z,2.90
2018-08-12T10:04:48.195Z,4.67
2018-08-12T10:07:16.304Z,2.37
2018-08-12T10:09:44.368Z,1.63
2018-08-12T10:12:12.429Z,2.37
2018-08-12T10:14:40.492Z,2.80
2018-08-12T10:17:08.540Z,2.37
2018-08-12T10:19:36.905Z,1.60
2018-08-12T10:22:05.001Z,3.73
2018-08-12T10:24:33.135Z,2.43
2018-08-12T10:27:01.286Z,1.70
2018-08-12T10:29:29.402Z,2.07
2018-08-12T10:31:57.495Z,2.70
2018-08-12T10:34:25.577Z,2.33
2018-08-12T10:36:53.705Z,1.90
2018-08-12T10:39:21.804Z,3.93
2018-08-12T10:41:49.849Z,2.03
2018-08-12T10:44:17.987Z,3.07
2018-08-12T10:46:46.137Z,3.27
2018-08-12T10:49:14.245Z,1.30
2018-08-12T10:51:42.302Z,4.87
2018-08-12T10:54:10.477Z,1.43
2018-08-12T10:56:38.629Z,1.80
2018-08-12T10:59:06.701Z,2.37
2018-08-12T11:01:34.794Z,3.67
2018-08-12T11:04:02.868Z,1.37
2018-08-12T11:06:31.028Z,1.43
2018-08-12T11:08:59.078Z,1.00
2018-08-12T11:11:27.122Z,0.83
2018-08-12T11:13:56.072Z,1.27
2018-08-12T11:16:24.113Z,1.73
2018-08-12T11:18:52.213Z,1.20
2018-08-12T11:21:20.288Z,1.43
2018-08-12T11:23:48.333Z,1.97
2018-08-12T11:26:16.367Z,1.53
2018-08-12T11:28:44.400Z,0.80
2018-08-12T11:31:12.617Z,1.03
2018-08-12T11:33:40.745Z,0.73
2018-08-12T11:36:08.786Z,0.97
2018-08-12T11:38:36.963Z,1.90
2018-08-12T11:41:05.089Z,0.87
2018-08-12T11:43:33.197Z,0.77
2018-08-12T11:46:01.445Z,1.00
2018-08-12T11:48:29.703Z,1.17
2018-08-12T11:50:57.919Z,0.87
2018-08-12T11:53:25.996Z,2.50
2018-08-12T11:55:54.096Z,0.70
2018-08-12T11:58:22.154Z,1.37
2018-08-12T12:00:51.251Z,0.73
2018-08-12T12:03:19.374Z,1.73
2018-08-12T12:05:47.466Z,0.60
2018-08-12T12:08:15.586Z,0.60
2018-08-12T12:10:43.648Z,0.90
2018-08-12T12:13:11.746Z,1.13
2018-08-12T12:15:39.862Z,0.80
2018-08-12T12:18:07.982Z,0.73
2018-08-12T12:20:36.182Z,0.63
2018-08-12T12:23:04.166Z,2.77
2018-08-12T12:25:32.314Z,3.03
2018-08-12T12:28:00.368Z,0.77
2018-08-12T12:30:28.505Z,0.47
2018-08-12T12:32:56.597Z,1.03
2018-08-12T12:35:24.754Z,1.43
2018-08-12T12:37:52.743Z,0.50
2018-08-12T12:40:20.833Z,2.50
2018-08-12T12:42:48.981Z,3.33
2018-08-12T12:45:17.094Z,0.70
2018-08-12T12:47:45.246Z,1.47
2018-08-12T12:50:17.836Z,1.53
2018-08-12T12:52:45.825Z,2.53
2018-08-12T12:55:13.981Z,1.90
2018-08-12T12:57:42.028Z,1.87
2018-08-12T13:00:12.389Z,1.13
2018-08-12T13:02:40.453Z,1.57
2018-08-12T13:05:10.449Z,1.30
2018-08-12T13:07:38.555Z,1.33
2018-08-12T13:10:07.581Z,0.70
2018-08-12T13:12:35.862Z,0.97
2018-08-12T13:15:05.082Z,0.40
2018-08-12T13:17:33.144Z,0.90
2018-08-12T13:20:01.229Z,3.03
2018-08-12T13:22:29.373Z,1.73
2018-08-12T13:24:58.477Z,1.27
2018-08-12T13:27:27.468Z,1.87
2018-08-12T13:29:55.613Z,1.73
2018-08-12T13:32:23.788Z,1.83
2018-08-12T13:34:51.866Z,2.43
2018-08-12T13:37:19.960Z,0.50
2018-08-12T13:39:48.048Z,0.57
2018-08-12T13:42:16.136Z,0.77
2018-08-12T13:44:44.229Z,3.70
2018-08-12T13:47:12.460Z,1.33
2018-08-12T13:49:40.549Z,1.73
2018-08-12T13:52:08.645Z,2.40
2018-08-12T13:54:36.732Z,0.87
2018-08-12T13:57:04.679Z,1.17
2018-08-12T13:59:32.703Z,0.60
2018-08-12T14:02:00.841Z,0.50
2018-08-12T14:04:29.302Z,0.50
2018-08-12T14:06:57.413Z,2.40
2018-08-12T14:09:25.452Z,0.80
2018-08-12T14:11:53.580Z,1.77
2018-08-12T14:14:21.719Z,2.97
2018-08-12T14:16:49.917Z,0.97
2018-08-12T14:19:18.022Z,4.53
2018-08-12T14:21:46.139Z,0.60
2018-08-12T14:24:14.265Z,3.20
2018-08-12T14:26:42.329Z,2.37
2018-08-12T14:29:10.452Z,1.70
2018-08-12T14:31:38.541Z,0.80
2018-08-12T14:34:06.740Z,2.23
2018-08-12T14:36:34.856Z,1.10
2018-08-12T14:39:04.101Z,3.27
2018-08-12T14:41:32.243Z,1.93
2018-08-12T14:44:00.272Z,1.00
2018-08-12T14:46:28.376Z,0.70
2018-08-12T14:48:56.380Z,3.00
2018-08-12T14:51:24.405Z,1.50
2018-08-12T14:53:52.539Z,1.37
2018-08-12T14:56:20.674Z,0.67
2018-08-12T14:58:48.987Z,1.00
2018-08-12T15:01:17.232Z,1.57
2018-08-12T15:03:45.269Z,1.00
2018-08-12T15:06:13.359Z,3.83
2018-08-12T15:08:41.717Z,3.07
2018-08-12T15:11:09.867Z,2.50
2018-08-12T15:13:38.052Z,1.17
2018-08-12T15:16:06.683Z,1.53
2018-08-12T15:18:34.790Z,1.33
2018-08-12T15:21:02.833Z,1.07
2018-08-12T15:23:30.941Z,1.37
2018-08-12T15:25:59.110Z,1.17
2018-08-12T15:28:29.127Z,1.20
2018-08-12T15:30:57.180Z,3.67
2018-08-12T15:33:25.260Z,2.33
2018-08-12T15:35:53.361Z,0.80
2018-08-12T15:38:21.444Z,0.73
2018-08-12T15:40:49.676Z,3.60
2018-08-12T15:43:17.725Z,1.27
2018-08-12T15:45:45.846Z,1.27
2018-08-12T15:51:21.406Z,1.13
2018-08-12T15:53:50.237Z,1.60
2018-08-12T15:56:18.293Z,1.53
2018-08-12T15:58:46.458Z,1.27
2018-08-12T16:01:14.496Z,1.90
2018-08-12T16:03:42.629Z,1.73
2018-08-12T16:06:10.780Z,1.17
2018-08-12T16:08:38.804Z,1.60
2018-08-12T16:11:07.555Z,3.33
2018-08-12T16:13:37.472Z,1.53
2018-08-12T16:16:05.949Z,2.23
2018-08-12T16:18:33.974Z,1.37
2018-08-12T16:21:02.067Z,1.97
2018-08-12T16:23:30.162Z,1.73
2018-08-12T16:25:58.305Z,1.67
2018-08-12T16:28:26.417Z,2.10
2018-08-12T16:30:54.803Z,2.10
2018-08-12T16:33:24.493Z,1.93
2018-08-12T16:36:11.945Z,2.10
2018-08-12T16:38:40.633Z,0.77
2018-08-12T16:41:21.654Z,1.17
2018-08-12T16:43:53.677Z,1.80
2018-08-12T16:46:38.032Z,3.07
2018-08-12T16:49:11.844Z,1.90
2018-08-12T16:51:41.102Z,3.13
2018-08-12T16:54:30.057Z,4.50
2018-08-12T16:57:07.195Z,2.07
2018-08-12T16:59:36.110Z,3.40
2018-08-12T17:02:25.842Z,2.23
2018-08-12T17:05:11.136Z,2.23
2018-08-12T17:07:48.412Z,1.23
2018-08-12T17:10:16.692Z,1.90
2018-08-12T17:12:46.255Z,3.40
2018-08-12T17:15:15.628Z,2.63
2018-08-12T17:17:44.078Z,4.63
2018-08-12T17:20:14.502Z,2.50
2018-08-12T17:22:42.726Z,3.20
2018-08-12T17:25:20.439Z,2.47
2018-08-12T17:27:49.091Z,1.20
2018-08-12T17:30:19.523Z,3.83
2018-08-12T17:32:47.675Z,1.87
2018-08-12T17:35:15.869Z,3.10
2018-08-12T17:37:44.077Z,3.20
2018-08-12T17:40:12.484Z,4.27
2018-08-12T17:42:41.279Z,3.10
2018-08-12T17:45:11.000Z,1.60
2018-08-12T17:47:39.426Z,2.93
2018-08-12T17:50:07.633Z,2.60
2018-08-12T17:52:35.689Z,2.23
2018-08-12T17:55:04.628Z,1.60
2018-08-12T17:57:32.730Z,2.07
2018-08-12T18:00:00.977Z,1.43
2018-08-12T18:02:29.109Z,2.20
2018-08-12T18:04:57.197Z,2.80
2018-08-12T18:07:25.373Z,4.07
2018-08-12T18:09:54.103Z,3.07
2018-08-12T18:12:22.241Z,1.93
2018-08-12T18:14:50.401Z,4.27
2018-08-12T18:17:18.444Z,3.70
2018-08-12T18:19:46.489Z,2.63
2018-08-12T18:22:14.596Z,3.50
2018-08-12T18:24:42.686Z,3.93
2018-08-12T18:27:10.805Z,2.30
2018-08-12T18:29:38.853Z,4.30
2018-08-12T18:32:06.921Z,2.13
2018-08-12T18:34:35.121Z,4.37
2018-08-12T18:37:03.174Z,2.93
2018-08-12T18:39:31.304Z,2.47
2018-08-12T18:42:00.058Z,2.10
2018-08-12T18:44:28.587Z,3.70
2018-08-12T18:46:57.276Z,2.17
2018-08-12T18:49:26.422Z,2.00
2018-08-12T18:51:54.480Z,3.70
2018-08-12T18:54:22.574Z,4.93
2018-08-12T18:56:50.641Z,4.50
2018-08-12T18:59:18.712Z,2.63
2018-08-12T19:01:46.792Z,1.70
2018-08-12T19:04:14.908Z,3.10
2018-08-12T19:06:42.936Z,2.07
2018-08-12T19:09:11.033Z,2.37
2018-08-12T19:11:39.121Z,4.67
2018-08-12T19:14:07.365Z,3.50
2018-08-12T19:16:35.525Z,4.17
2018-08-12T19:19:03.632Z,4.20
2018-08-12T19:21:31.704Z,2.03
2018-08-12T19:23:59.798Z,3.27
2018-08-12T19:26:27.843Z,4.87
2018-08-12T19:28:56.041Z,3.77
2018-08-12T19:31:24.145Z,2.73
2018-08-12T19:33:52.326Z,4.03
2018-08-12T19:36:20.548Z,5.37
2018-08-12T19:38:48.651Z,4.10
2018-08-12T19:41:16.955Z,3.73
2018-08-12T19:43:44.993Z,2.53
2018-08-12T19:46:13.188Z,3.13
2018-08-12T19:48:41.242Z,5.03
2018-08-12T19:51:09.288Z,5.43
2018-08-12T19:53:37.356Z,3.03
2018-08-12T19:56:05.612Z,4.63
2018-08-12T19:58:33.697Z,5.50
2018-08-12T20:01:01.836Z,2.40
2018-08-12T20:03:30.012Z,2.73
2018-08-12T20:06:00.077Z,4.47
2018-08-12T20:08:28.198Z,3.67
2018-08-12T20:10:56.244Z,5.70
2018-08-12T20:13:24.387Z,9.90
2018-08-12T20:15:52.468Z,5.40
2018-08-12T20:18:20.546Z,2.83
2018-08-12T20:20:48.689Z,4.10
2018-08-12T20:23:16.904Z,3.00
2018-08-12T20:25:45.000Z,3.73
2018-08-12T20:28:13.206Z,5.43
2018-08-12T20:30:41.334Z,4.27
2018-08-12T20:33:09.438Z,2.40
2018-08-12T20:35:37.577Z,3.13
2018-08-12T20:38:05.830Z,4.37
2018-08-12T20:40:33.941Z,2.30
2018-08-12T20:43:02.003Z,2.30
2018-08-12T20:45:30.523Z,2.60
2018-08-12T20:47:58.622Z,2.80
2018-08-12T20:50:26.677Z,4.50
2018-08-12T20:52:54.752Z,2.33
2018-08-12T20:55:23.290Z,3.53
2018-08-12T20:57:51.325Z,3.50
2018-08-12T21:00:19.389Z,2.77
2018-08-12T21:02:47.430Z,3.87
2018-08-12T21:05:15.609Z,3.23
2018-08-12T21:07:43.728Z,3.77
2018-08-12T21:10:11.841Z,8.07
2018-08-12T21:12:40.011Z,4.63
2018-08-12T21:15:08.392Z,5.73
2018-08-12T21:17:36.633Z,4.00
2018-08-12T21:20:05.257Z,2.53
2018-08-12T21:22:33.381Z,2.53
2018-08-12T21:25:01.417Z,4.70
2018-08-12T21:27:29.467Z,4.07
2018-08-12T21:29:57.500Z,5.13
2018-08-12T21:32:25.570Z,3.17
2018-08-12T21:34:53.596Z,3.47
2018-08-12T21:37:21.964Z,3.30
2018-08-12T21:39:50.043Z,3.67
2018-08-12T21:42:18.095Z,7.40
2018-08-12T21:44:46.786Z,2.77
2018-08-12T21:47:14.844Z,4.20
2018-08-12T21:49:43.015Z,8.23
2018-08-12T21:52:11.243Z,2.87
2018-08-12T21:54:39.447Z,2.77
2018-08-12T21:57:07.481Z,4.80
2018-08-12T21:59:35.540Z,5.40
2018-08-12T22:02:04.100Z,2.57
2018-08-12T22:04:32.941Z,3.60
2018-08-12T22:07:00.974Z,4.53
2018-08-12T22:09:29.023Z,2.60
2018-08-12T22:11:57.179Z,4.47
2018-08-12T22:14:25.277Z,4.27
2018-08-12T22:16:53.347Z,5.37
2018-08-12T22:19:21.416Z,3.73
2018-08-12T22:21:50.028Z,2.83
2018-08-12T22:24:18.375Z,4.27
2018-08-12T22:26:46.449Z,3.40
2018-08-12T22:29:14.655Z,6.27
2018-08-12T22:31:42.755Z,4.40
2018-08-12T22:34:10.879Z,4.27
2018-08-12T22:36:38.984Z,3.93
2018-08-12T22:39:07.649Z,2.80
2018-08-12T22:41:35.732Z,4.80
2018-08-12T22:44:03.857Z,3.30
2018-08-12T22:46:31.960Z,4.07
2018-08-12T22:49:00.042Z,6.53
2018-08-12T22:51:28.207Z,5.93
2018-08-12T22:53:56.267Z,4.83
2018-08-12T22:56:24.324Z,4.77
2018-08-12T22:58:52.395Z,3.43
2018-08-12T23:01:20.764Z,4.97
2018-08-12T23:03:48.869Z,4.53
2018-08-12T23:06:16.915Z,5.67
2018-08-12T23:08:45.368Z,3.70
2018-08-12T23:11:13.429Z,4.73
2018-08-12T23:13:41.522Z,3.50
2018-08-12T23:16:20.820Z,6.03
2018-08-12T23:18:49.368Z,8.63
2018-08-12T23:21:17.761Z,3.37
2018-08-12T23:23:45.878Z,6.47
2018-08-12T23:26:13.941Z,5.50
2018-08-12T23:28:42.173Z,7.17
2018-08-12T23:31:10.537Z,4.03
2018-08-12T23:33:38.587Z,3.60
2018-08-12T23:36:06.872Z,3.60
2018-08-12T23:38:35.089Z,4.50
2018-08-12T23:41:03.341Z,3.90
2018-08-12T23:43:31.469Z,5.63
2018-08-12T23:45:59.565Z,4.47
2018-08-12T23:48:28.470Z,5.40
2018-08-12T23:50:56.656Z,4.77
2018-08-12T23:53:24.750Z,4.77
2018-08-12T23:55:54.178Z,5.77
2018-08-12T23:58:22.239Z,4.23
